Time;durP1;ratioP1;P1;durP2;ratioP2;P2;SDS_P1;SDS_P2;PMS_P1;PMS_P2;Temp;Humidity;BMP_temperature;BMP_pressure;BME280_temperature;BME280_humidity;BME280_pressure;Samples;Min_cycle;Max_cycle;Signal;HPM_P1;HPM_P2
2021/09/23 00:00:05;;;;;;;9.43;8.27;;;11.10;99.90;;;;;;4993318;28;20431;-63
2021/09/23 00:05:31;;;;;;;10.33;9.43;;;10.90;99.90;;;;;;4974217;28;20517;-64
2021/09/23 00:07:58;;;;;;;9.40;8.40;;;11.00;99.90;;;;;;4973672;28;20426;-64
2021/09/23 00:10:34;;;;;;;9.73;8.37;;;11.00;99.90;;;;;;4973934;28;21016;-64
2021/09/23 00:13:02;;;;;;;12.20;10.57;;;11.00;99.90;;;;;;4990353;28;20433;-64
2021/09/23 00:15:29;;;;;;;10.37;9.37;;;11.00;99.90;;;;;;4992760;28;20458;-63
2021/09/23 00:17:59;;;;;;;9.97;9.00;;;11.00;99.90;;;;;;4992729;28;20423;-64
2021/09/23 00:20:31;;;;;;;12.03;9.30;;;11.00;99.90;;;;;;4992752;28;20450;-64
2021/09/23 00:22:57;;;;;;;10.87;9.57;;;11.00;99.90;;;;;;4992979;28;20446;-64
2021/09/23 00:25:25;;;;;;;9.83;8.87;;;11.00;99.90;;;;;;4990977;28;20911;-63
2021/09/23 00:27:52;;;;;;;10.93;9.83;;;11.00;99.90;;;;;;4980454;28;20430;-64
2021/09/23 00:30:18;;;;;;;10.73;8.63;;;10.90;99.90;;;;;;4992510;28;20462;-64
2021/09/23 00:32:43;;;;;;;11.50;10.37;;;11.00;99.90;;;;;;4992765;28;20465;-64
2021/09/23 00:35:10;;;;;;;10.27;9.13;;;10.90;99.90;;;;;;4989985;28;20186;-64
2021/09/23 00:37:35;;;;;;;10.23;9.23;;;11.00;99.90;;;;;;4973253;28;20177;-63
2021/09/23 00:40:01;;;;;;;10.87;9.23;;;11.00;99.90;;;;;;4973479;28;20427;-64
2021/09/23 00:42:26;;;;;;;11.40;9.57;;;11.00;99.90;;;;;;4973482;28;20172;-64
2021/09/23 00:44:57;;;;;;;10.20;9.20;;;11.00;99.90;;;;;;4963032;28;20179;-64
2021/09/23 00:47:23;;;;;;;12.53;10.40;;;10.90;99.90;;;;;;4991995;28;20182;-64
2021/09/23 00:49:50;;;;;;;11.40;10.00;;;10.90;99.90;;;;;;4992723;28;20419;-64
2021/09/23 00:52:16;;;;;;;12.10;10.10;;;10.90;99.90;;;;;;4992453;28;20628;-64
2021/09/23 00:54:42;;;;;;;9.27;8.47;;;10.90;99.90;;;;;;4992594;28;20902;-64
2021/09/23 00:57:08;;;;;;;9.70;8.33;;;10.80;99.90;;;;;;4992598;28;20986;-64
2021/09/23 00:59:35;;;;;;;11.07;8.03;;;10.80;99.90;;;;;;4977951;28;20428;-63
2021/09/23 01:02:00;;;;;;;10.83;8.23;;;10.80;99.90;;;;;;4987199;28;20199;-64
2021/09/23 01:04:26;;;;;;;12.00;9.70;;;10.80;99.90;;;;;;4990952;28;20449;-63
2021/09/23 01:06:52;;;;;;;11.10;9.90;;;10.70;99.90;;;;;;4981575;28;20254;-64
2021/09/23 01:09:18;;;;;;;10.27;8.60;;;10.60;99.90;;;;;;4992331;28;20226;-64
2021/09/23 01:11:44;;;;;;;11.93;10.27;;;10.60;99.90;;;;;;4992406;28;20435;-64
2021/09/23 01:14:11;;;;;;;12.73;9.73;;;10.70;99.90;;;;;;4992021;28;20207;-64
2021/09/23 01:16:37;;;;;;;11.03;9.90;;;10.70;99.90;;;;;;4992229;28;20168;-64
2021/09/23 01:19:03;;;;;;;11.33;10.00;;;10.70;99.90;;;;;;4990400;28;20501;-64
2021/09/23 01:21:28;;;;;;;12.50;10.50;;;10.70;99.90;;;;;;4992271;28;20963;-64
2021/09/23 01:23:54;;;;;;;10.70;9.60;;;10.50;99.90;;;;;;4992414;28;20423;-64
2021/09/23 01:26:29;;;;;;;10.50;9.40;;;10.50;99.90;;;;;;4985996;28;20235;-63
2021/09/23 01:28:55;;;;;;;13.50;9.60;;;10.50;99.90;;;;;;4980208;28;20190;-64
2021/09/23 01:31:22;;;;;;;11.10;10.00;;;10.50;99.90;;;;;;4991839;28;20470;-64
2021/09/23 01:33:47;;;;;;;10.17;9.20;;;10.60;99.90;;;;;;4995660;28;20458;-64
2021/09/23 01:36:13;;;;;;;10.80;9.80;;;10.60;99.90;;;;;;4994820;28;20789;-64
2021/09/23 01:38:39;;;;;;;11.70;10.57;;;10.50;99.90;;;;;;4995920;28;20673;-63
2021/09/23 01:41:04;;;;;;;9.07;8.27;;;10.50;99.90;;;;;;4996175;28;20485;-64
2021/09/23 01:43:30;;;;;;;12.00;10.80;;;10.50;99.90;;;;;;4994540;28;20226;-64
2021/09/23 01:45:56;;;;;;;11.77;10.57;;;10.50;99.90;;;;;;4993929;28;20274;-64
2021/09/23 01:48:21;;;;;;;10.63;9.63;;;10.50;99.90;;;;;;4993832;28;20180;-64
2021/09/23 01:50:47;;;;;;;13.60;12.27;;;10.50;99.90;;;;;;4995793;28;20191;-64
2021/09/23 01:53:13;;;;;;;13.33;10.17;;;10.50;99.90;;;;;;4995821;28;20207;-64
2021/09/23 01:55:38;;;;;;;13.77;11.20;;;10.50;99.90;;;;;;4995563;28;20469;-63
2021/09/23 01:58:04;;;;;;;12.83;11.47;;;10.50;99.90;;;;;;4995574;28;20175;-63
2021/09/23 02:00:29;;;;;;;10.43;9.20;;;10.40;99.90;;;;;;4986002;28;20196;-64
2021/09/23 02:02:56;;;;;;;12.60;10.80;;;10.40;99.90;;;;;;4977610;28;20530;-64
2021/09/23 02:05:22;;;;;;;13.27;11.50;;;10.30;99.90;;;;;;4995657;28;20175;-63
2021/09/23 02:07:47;;;;;;;14.10;10.73;;;10.10;99.90;;;;;;4995507;28;20422;-63
2021/09/23 02:10:13;;;;;;;12.37;10.67;;;10.10;99.90;;;;;;4995238;28;20195;-64
2021/09/23 02:12:39;;;;;;;11.23;10.13;;;10.20;99.90;;;;;;4995305;28;20175;-64
2021/09/23 02:15:06;;;;;;;13.20;11.80;;;10.20;99.90;;;;;;4988884;28;20485;-63
2021/09/23 02:17:31;;;;;;;11.60;10.40;;;10.10;99.90;;;;;;4995203;28;20176;-64
2021/09/23 02:19:57;;;;;;;11.60;10.33;;;10.10;99.90;;;;;;4995005;28;20503;-64
2021/09/23 02:22:24;;;;;;;10.53;9.53;;;10.00;99.90;;;;;;4995444;28;20176;-64
2021/09/23 02:24:50;;;;;;;10.17;9.17;;;9.90;99.90;;;;;;4994243;28;20434;-64
2021/09/23 02:27:15;;;;;;;9.67;8.60;;;9.80;99.90;;;;;;4992964;28;20442;-64
2021/09/23 02:29:41;;;;;;;13.43;10.10;;;9.90;99.90;;;;;;4986687;28;20191;-64
2021/09/23 02:32:07;;;;;;;10.10;8.93;;;9.90;99.90;;;;;;4994513;28;20243;-64
2021/09/23 02:34:33;;;;;;;12.20;10.97;;;9.90;99.90;;;;;;4994769;28;20203;-64
2021/09/23 02:36:59;;;;;;;12.03;10.93;;;9.80;99.90;;;;;;4994885;28;20453;-64
2021/09/23 02:39:25;;;;;;;12.47;11.17;;;9.80;99.90;;;;;;4994626;28;20637;-64
2021/09/23 02:41:50;;;;;;;12.33;11.13;;;9.80;99.90;;;;;;4994692;28;20936;-64
2021/09/23 02:44:16;;;;;;;12.10;10.60;;;9.80;99.90;;;;;;4994149;28;20425;-63
2021/09/23 02:46:42;;;;;;;12.23;11.00;;;9.80;99.90;;;;;;4978803;28;20183;-63
2021/09/23 02:49:07;;;;;;;13.40;10.83;;;9.80;99.90;;;;;;4976320;28;20176;-64
2021/09/23 02:51:33;;;;;;;11.43;9.50;;;9.90;99.90;;;;;;4977984;28;20207;-63
2021/09/23 02:53:58;;;;;;;12.43;11.20;;;9.90;99.90;;;;;;4994201;28;20199;-64
2021/09/23 02:56:24;;;;;;;13.60;12.20;;;9.90;99.90;;;;;;4994877;28;20258;-64
2021/09/23 02:58:50;;;;;;;12.67;10.90;;;9.90;99.90;;;;;;4994463;28;20226;-64
2021/09/23 03:01:19;;;;;;;11.60;10.40;;;9.90;99.90;;;;;;4986229;28;20578;-64
2021/09/23 03:03:45;;;;;;;11.23;9.13;;;9.80;99.90;;;;;;4994525;28;20438;-63
2021/09/23 03:06:10;;;;;;;12.93;10.47;;;9.70;99.90;;;;;;4994622;28;20454;-63
2021/09/23 03:08:37;;;;;;;12.20;11.00;;;9.70;99.90;;;;;;4994349;28;20465;-64
2021/09/23 03:11:03;;;;;;;11.70;10.50;;;9.70;99.90;;;;;;4992910;28;20240;-64
2021/09/23 03:13:28;;;;;;;10.83;9.73;;;9.70;99.90;;;;;;4994282;28;20908;-63
2021/09/23 03:15:54;;;;;;;10.73;8.83;;;9.70;99.90;;;;;;4992803;28;20470;-64
2021/09/23 03:18:20;;;;;;;10.90;9.80;;;9.70;99.90;;;;;;4994061;28;20704;-64
2021/09/23 03:20:46;;;;;;;12.23;9.07;;;9.60;99.90;;;;;;4993924;28;20955;-64
2021/09/23 03:23:13;;;;;;;10.60;9.00;;;9.60;99.90;;;;;;4994250;28;20176;-64
2021/09/23 03:25:39;;;;;;;10.20;7.97;;;9.70;99.90;;;;;;4981231;28;20442;-64
2021/09/23 03:28:05;;;;;;;9.40;8.27;;;9.70;99.90;;;;;;4974371;28;20430;-63
2021/09/23 03:30:30;;;;;;;9.47;8.53;;;9.70;99.90;;;;;;4980138;28;20533;-64
2021/09/23 03:32:56;;;;;;;8.47;7.60;;;9.70;99.90;;;;;;4993901;28;20422;-64
2021/09/23 03:35:22;;;;;;;8.90;8.10;;;9.70;99.90;;;;;;4993970;28;20811;-64
2021/09/23 03:37:49;;;;;;;8.67;7.80;;;9.60;99.90;;;;;;4993041;28;20183;-64
2021/09/23 03:40:15;;;;;;;8.77;7.93;;;9.40;99.90;;;;;;4999030;28;20195;-64
2021/09/23 03:42:40;;;;;;;8.00;7.27;;;9.20;99.90;;;;;;4993799;28;20426;-64
2021/09/23 03:45:07;;;;;;;10.97;8.10;;;9.10;99.90;;;;;;4981104;28;20180;-64
2021/09/23 03:47:33;;;;;;;8.90;7.70;;;9.20;99.90;;;;;;5000271;28;20693;-64
2021/09/23 03:49:58;;;;;;;10.47;9.37;;;9.20;99.90;;;;;;4999465;28;20952;-64
2021/09/23 03:52:25;;;;;;;12.10;10.17;;;9.20;99.90;;;;;;4993626;28;20506;-63
2021/09/23 03:54:50;;;;;;;10.87;9.77;;;9.30;99.90;;;;;;4993448;28;20238;-63
2021/09/23 03:57:16;;;;;;;11.23;9.10;;;9.30;99.90;;;;;;4979654;28;20424;-63
2021/09/23 03:59:41;;;;;;;9.30;8.30;;;9.30;99.90;;;;;;4974129;28;20175;-64
2021/09/23 04:02:07;;;;;;;8.40;7.60;;;9.30;99.90;;;;;;4973877;28;20600;-63
2021/09/23 04:04:33;;;;;;;9.10;7.80;;;9.40;99.90;;;;;;4994482;28;20205;-64
2021/09/23 04:06:58;;;;;;;10.90;9.23;;;9.30;99.90;;;;;;4997059;28;20178;-64
2021/09/23 04:09:24;;;;;;;9.30;8.23;;;9.30;99.90;;;;;;4992945;28;20176;-64
2021/09/23 04:11:49;;;;;;;9.87;8.40;;;9.20;99.90;;;;;;4993111;28;20202;-63
2021/09/23 04:14:15;;;;;;;8.00;7.20;;;9.20;99.90;;;;;;4994124;28;20289;-64
2021/09/23 04:16:40;;;;;;;10.40;8.00;;;9.30;99.90;;;;;;5002581;28;20190;-64
2021/09/23 04:19:06;;;;;;;14.67;9.83;;;9.20;99.90;;;;;;5012577;28;20175;-66
2021/09/23 04:21:32;;;;;;;12.30;10.00;;;9.10;99.90;;;;;;4997930;28;20391;-64
2021/09/23 04:23:58;;;;;;;8.93;8.00;;;9.00;99.90;;;;;;4999276;28;20168;-63
2021/09/23 04:26:23;;;;;;;8.93;8.13;;;9.00;99.90;;;;;;4993074;28;20187;-64
2021/09/23 04:28:49;;;;;;;9.17;8.23;;;9.00;99.90;;;;;;5004775;28;20437;-63
2021/09/23 04:31:14;;;;;;;10.70;9.60;;;9.00;99.90;;;;;;4993266;28;20214;-63
2021/09/23 04:33:40;;;;;;;11.07;9.97;;;9.00;99.90;;;;;;4999650;28;20245;-64
2021/09/23 04:36:06;;;;;;;11.07;9.97;;;9.00;99.90;;;;;;4984122;28;20175;-64
2021/09/23 04:38:31;;;;;;;11.97;10.77;;;9.00;99.90;;;;;;5012518;28;20166;-63
2021/09/23 04:40:57;;;;;;;13.43;10.97;;;9.00;99.90;;;;;;5008041;28;20610;-63
2021/09/23 04:43:23;;;;;;;12.27;10.97;;;9.00;99.90;;;;;;5003742;28;20240;-63
2021/09/23 04:45:49;;;;;;;10.43;9.33;;;9.00;99.90;;;;;;5012383;28;20546;-64
2021/09/23 04:48:14;;;;;;;9.57;8.80;;;9.10;99.90;;;;;;5010675;28;20198;-63
2021/09/23 04:50:40;;;;;;;11.93;9.53;;;9.10;99.90;;;;;;5000780;28;20205;-64
2021/09/23 04:53:06;;;;;;;15.30;9.83;;;9.10;99.90;;;;;;4998944;28;20221;-64
2021/09/23 04:55:31;;;;;;;15.57;9.97;;;9.10;99.90;;;;;;5012305;28;20636;-63
2021/09/23 04:57:59;;;;;;;10.37;9.30;;;9.10;99.90;;;;;;5011734;28;20457;-63
2021/09/23 05:00:24;;;;;;;10.77;8.80;;;9.10;99.90;;;;;;4975860;28;20202;-63
2021/09/23 05:02:50;;;;;;;12.40;9.70;;;9.10;99.90;;;;;;4981466;28;20430;-63
2021/09/23 05:05:15;;;;;;;12.90;9.80;;;9.10;99.90;;;;;;4992636;28;20210;-63
2021/09/23 05:07:41;;;;;;;11.73;9.30;;;9.10;99.90;;;;;;4982522;28;20660;-63
2021/09/23 05:10:07;;;;;;;15.43;9.83;;;9.10;99.90;;;;;;4973249;28;20191;-63
2021/09/23 05:12:32;;;;;;;16.07;12.90;;;9.00;99.90;;;;;;4973429;28;20183;-63
2021/09/23 05:14:59;;;;;;;13.27;9.50;;;9.00;99.90;;;;;;4973196;28;20459;-63
2021/09/23 05:17:24;;;;;;;13.40;11.70;;;9.00;99.90;;;;;;4972989;28;20168;-63
2021/09/23 05:19:50;;;;;;;12.00;9.87;;;9.10;99.90;;;;;;4973522;28;20787;-63
2021/09/23 05:22:16;;;;;;;14.83;10.10;;;9.10;99.90;;;;;;4974283;28;20172;-63
2021/09/23 05:24:47;;;;;;;24.57;12.93;;;9.10;99.90;;;;;;4992519;28;20277;-63
2021/09/23 05:27:12;;;;;;;18.50;10.63;;;9.10;99.90;;;;;;4992673;28;20270;-63
2021/09/23 05:29:40;;;;;;;15.07;10.10;;;9.20;99.90;;;;;;4992306;28;20423;-63
2021/09/23 05:32:06;;;;;;;16.90;12.77;;;9.20;99.90;;;;;;4992531;28;20295;-63
2021/09/23 05:34:32;;;;;;;13.23;9.93;;;9.20;99.90;;;;;;4992454;28;20462;-63
2021/09/23 05:36:58;;;;;;;10.93;9.80;;;9.20;99.90;;;;;;4992281;28;20455;-63
2021/09/23 05:39:23;;;;;;;15.10;9.10;;;9.30;99.90;;;;;;4992098;28;20457;-64
2021/09/23 05:41:49;;;;;;;15.37;10.13;;;9.40;99.90;;;;;;4992517;28;20254;-63
2021/09/23 05:44:14;;;;;;;18.13;11.63;;;9.40;99.90;;;;;;4992375;28;20176;-63
2021/09/23 05:46:40;;;;;;;13.30;9.10;;;9.40;99.90;;;;;;4992534;28;20211;-63
2021/09/23 05:49:06;;;;;;;11.73;10.50;;;9.50;99.90;;;;;;4992146;28;20250;-63
2021/09/23 05:51:32;;;;;;;15.10;11.00;;;9.70;99.90;;;;;;4981960;28;20287;-64
2021/09/23 05:53:57;;;;;;;11.30;10.10;;;9.80;99.90;;;;;;4972769;28;20625;-64
2021/09/23 05:56:23;;;;;;;15.80;10.93;;;9.90;99.90;;;;;;4972905;28;20666;-63
2021/09/23 05:58:48;;;;;;;15.87;11.10;;;10.00;99.90;;;;;;4989186;28;20250;-63
2021/09/23 06:01:14;;;;;;;19.50;10.83;;;10.20;99.90;;;;;;4982544;28;20307;-63
2021/09/23 06:03:39;;;;;;;17.40;11.80;;;10.40;99.90;;;;;;4991309;28;20184;-63
2021/09/23 06:06:05;;;;;;;23.50;17.43;;;10.50;99.90;;;;;;4983449;28;20183;-63
2021/09/23 06:08:30;;;;;;;15.10;12.20;;;10.70;99.90;;;;;;4985346;28;20183;-64
2021/09/23 06:10:56;;;;;;;14.30;11.60;;;10.90;99.90;;;;;;4983001;28;20543;-64
2021/09/23 06:13:22;;;;;;;11.70;10.40;;;11.10;99.90;;;;;;4990927;28;20199;-64
2021/09/23 06:15:47;;;;;;;14.23;10.77;;;11.20;99.90;;;;;;4992112;28;20168;-63
2021/09/23 06:18:13;;;;;;;14.53;11.00;;;11.20;99.90;;;;;;4991958;28;20168;-64
2021/09/23 06:20:43;;;;;;;11.30;10.17;;;11.30;99.90;;;;;;4982162;28;20203;-64
2021/09/23 06:23:08;;;;;;;15.73;11.27;;;11.50;99.90;;;;;;4984318;28;20171;-64
2021/09/23 06:25:37;;;;;;;11.57;9.80;;;11.70;99.90;;;;;;4995613;28;20465;-63
2021/09/23 06:28:02;;;;;;;15.00;10.60;;;11.90;99.90;;;;;;4995514;28;20211;-63
2021/09/23 06:30:28;;;;;;;13.53;8.77;;;12.10;99.90;;;;;;4996269;28;21002;-64
2021/09/23 06:32:53;;;;;;;13.20;8.40;;;12.30;99.90;;;;;;4995478;28;20660;-63
2021/09/23 06:35:19;;;;;;;14.03;9.17;;;12.50;99.90;;;;;;4981731;28;20200;-64
2021/09/23 06:37:45;;;;;;;13.90;9.63;;;12.70;99.90;;;;;;4976750;28;20165;-64
2021/09/23 06:40:12;;;;;;;11.40;8.70;;;13.00;99.90;;;;;;4994966;28;20202;-63
2021/09/23 06:42:37;;;;;;;9.57;8.40;;;13.30;99.90;;;;;;4995047;28;20454;-64
2021/09/23 06:45:04;;;;;;;10.70;8.50;;;13.60;99.90;;;;;;4994999;28;20454;-63
2021/09/23 06:47:30;;;;;;;14.90;10.03;;;13.80;99.90;;;;;;4994646;28;20222;-63
2021/09/23 06:49:55;;;;;;;10.97;9.73;;;14.00;99.90;;;;;;4994001;28;20427;-63
2021/09/23 06:52:21;;;;;;;16.53;10.00;;;14.20;99.90;;;;;;4994805;28;20641;-63
2021/09/23 06:54:47;;;;;;;14.30;10.60;;;14.30;99.90;;;;;;4994846;28;20226;-64
2021/09/23 06:57:12;;;;;;;13.20;9.27;;;14.40;99.90;;;;;;4994060;28;20952;-64
2021/09/23 06:59:38;;;;;;;10.50;9.10;;;14.60;99.90;;;;;;4977142;28;20178;-64
2021/09/23 07:02:03;;;;;;;9.53;8.30;;;14.80;99.90;;;;;;4994628;28;20266;-64
2021/09/23 07:04:29;;;;;;;13.47;9.30;;;15.00;99.90;;;;;;4993234;28;20704;-64
2021/09/23 07:06:54;;;;;;;11.97;7.87;;;15.20;99.90;;;;;;4981575;28;20176;-64
2021/09/23 07:09:20;;;;;;;10.80;8.53;;;15.30;99.90;;;;;;4992683;28;20183;-64
2021/09/23 07:11:45;;;;;;;9.00;7.17;;;15.40;99.90;;;;;;4991422;28;20235;-65
2021/09/23 07:14:11;;;;;;;7.70;6.90;;;15.50;99.90;;;;;;4992440;28;20200;-64
2021/09/23 07:16:36;;;;;;;6.73;6.03;;;15.40;99.90;;;;;;4984442;28;20543;-65
2021/09/23 07:19:02;;;;;;;9.60;6.90;;;15.30;99.90;;;;;;4994223;28;20167;-63
2021/09/23 07:21:28;;;;;;;7.23;6.53;;;15.30;99.90;;;;;;4979044;28;20590;-64
2021/09/23 07:23:53;;;;;;;6.33;5.70;;;15.60;99.90;;;;;;4984370;28;20190;-64
2021/09/23 07:26:19;;;;;;;7.40;5.70;;;15.90;99.90;;;;;;4994562;28;20615;-64
2021/09/23 07:28:45;;;;;;;6.50;5.50;;;16.10;99.90;;;;;;4987555;28;20189;-64
2021/09/23 07:31:11;;;;;;;8.10;5.53;;;16.40;99.90;;;;;;4991796;28;20481;-63
2021/09/23 07:33:37;;;;;;;9.60;6.10;;;16.30;99.90;;;;;;4976773;28;20454;-64
2021/09/23 07:36:03;;;;;;;6.60;5.53;;;16.20;99.90;;;;;;4994207;28;20167;-64
2021/09/23 07:38:28;;;;;;;7.53;6.83;;;16.30;99.90;;;;;;4994014;28;20203;-65
2021/09/23 07:40:54;;;;;;;6.90;5.10;;;16.50;99.90;;;;;;4975857;28;20192;-64
2021/09/23 07:43:19;;;;;;;6.50;6.00;;;16.90;99.90;;;;;;4969815;28;20851;-63
2021/09/23 07:45:45;;;;;;;7.10;5.80;;;16.80;99.90;;;;;;4994118;28;20575;-64
2021/09/23 07:48:10;;;;;;;5.87;5.27;;;16.90;99.90;;;;;;4993708;28;20180;-64
2021/09/23 07:50:36;;;;;;;5.90;5.03;;;17.10;99.90;;;;;;4993740;28;20200;-64
2021/09/23 07:53:02;;;;;;;5.40;4.90;;;17.40;99.90;;;;;;4993935;28;20179;-63
2021/09/23 07:55:27;;;;;;;5.00;4.50;;;17.70;99.90;;;;;;4993754;28;20168;-63
2021/09/23 07:57:53;;;;;;;4.77;4.27;;;17.60;99.90;;;;;;4993173;28;20187;-65
2021/09/23 08:00:18;;;;;;;6.20;4.80;;;17.60;99.90;;;;;;4993588;28;20701;-64
2021/09/23 08:02:44;;;;;;;5.40;4.90;;;17.80;99.90;;;;;;4990905;28;20175;-63
2021/09/23 08:05:10;;;;;;;5.37;4.93;;;18.20;99.90;;;;;;4990851;28;20187;-64
2021/09/23 08:07:37;;;;;;;6.90;5.00;;;18.30;99.90;;;;;;4992626;28;20692;-64
2021/09/23 08:10:03;;;;;;;5.10;4.67;;;18.70;99.90;;;;;;4993741;28;20473;-63
2021/09/23 08:12:29;;;;;;;5.67;4.23;;;18.80;99.90;;;;;;4993553;28;20446;-64
2021/09/23 08:14:54;;;;;;;6.73;4.40;;;19.10;99.90;;;;;;4993503;28;20469;-63
2021/09/23 08:17:20;;;;;;;5.20;4.30;;;19.30;99.90;;;;;;4993110;28;20622;-64
2021/09/23 08:19:45;;;;;;;6.10;5.10;;;19.20;99.90;;;;;;4993323;28;20556;-64
2021/09/23 08:22:11;;;;;;;3.90;3.50;;;19.20;99.90;;;;;;4993267;28;20247;-64
2021/09/23 08:24:37;;;;;;;5.30;3.80;;;19.50;99.90;;;;;;4976054;28;20522;-64
2021/09/23 08:27:03;;;;;;;8.00;3.30;;;19.60;99.90;;;;;;4993209;28;20187;-64
2021/09/23 08:29:28;;;;;;;3.90;3.60;;;19.50;99.90;;;;;;4992908;28;20191;-64
2021/09/23 08:31:55;;;;;;;4.70;4.17;;;19.50;99.90;;;;;;4992866;28;20508;-64
2021/09/23 08:34:21;;;;;;;4.03;3.63;;;19.80;99.90;;;;;;4992977;28;20234;-64
2021/09/23 08:36:47;;;;;;;4.50;3.60;;;20.40;99.90;;;;;;4992485;28;20425;-64
2021/09/23 08:39:13;;;;;;;3.93;3.53;;;20.70;99.90;;;;;;4992404;28;20431;-64
2021/09/23 08:41:39;;;;;;;6.10;3.50;;;21.00;99.90;;;;;;4992329;28;20192;-64
2021/09/23 08:44:05;;;;;;;3.40;3.17;;;21.90;99.90;;;;;;4992848;28;20179;-64
2021/09/23 08:46:33;;;;;;;4.80;2.47;;;22.40;99.90;;;;;;4992907;28;20182;-64
2021/09/23 08:49:00;;;;;;;3.07;2.87;;;22.50;99.70;;;;;;4992473;28;20422;-64
2021/09/23 08:51:27;;;;;;;4.80;2.97;;;22.50;99.90;;;;;;4992688;28;20628;-64
2021/09/23 08:53:54;;;;;;;4.30;3.10;;;23.10;98.70;;;;;;4992589;28;20537;-64
2021/09/23 08:56:21;;;;;;;3.97;3.40;;;23.40;97.70;;;;;;4992373;28;20419;-64
2021/09/23 08:58:47;;;;;;;4.40;3.97;;;23.70;96.70;;;;;;4992188;28;20430;-64
2021/09/23 09:01:17;;;;;;;5.07;3.03;;;24.00;96.50;;;;;;4992576;28;20441;-64
2021/09/23 09:03:42;;;;;;;4.40;4.00;;;24.40;95.60;;;;;;4992315;28;20179;-64
2021/09/23 09:06:13;;;;;;;7.57;3.20;;;25.20;93.00;;;;;;4992351;28;20439;-64
2021/09/23 09:08:42;;;;;;;4.80;3.70;;;26.60;90.00;;;;;;4992414;28;20626;-64
2021/09/23 09:11:09;;;;;;;3.97;3.57;;;25.90;87.60;;;;;;4992471;28;20434;-64
2021/09/23 09:13:46;;;;;;;4.00;3.60;;;26.60;88.90;;;;;;4992622;28;20457;-64
2021/09/23 09:16:21;;;;;;;4.37;3.10;;;27.10;84.70;;;;;;4992646;28;20449;-65
2021/09/23 09:18:48;;;;;;;4.00;3.30;;;28.60;78.90;;;;;;4991864;28;20509;-65
2021/09/23 09:21:17;;;;;;;3.20;2.80;;;28.20;75.20;;;;;;4983909;28;20818;-65
2021/09/23 09:23:56;;;;;;;3.43;2.83;;;27.60;74.40;;;;;;4992355;28;20430;-65
2021/09/23 09:26:39;;;;;;;4.47;3.33;;;27.70;74.80;;;;;;4991994;28;20444;-65
2021/09/23 09:29:06;;;;;;;5.53;3.60;;;27.40;73.30;;;;;;4992252;28;20453;-65
2021/09/23 09:31:34;;;;;;;3.90;3.60;;;27.60;72.20;;;;;;4991911;28;20547;-65
2021/09/23 09:34:01;;;;;;;5.60;3.57;;;28.60;72.30;;;;;;4992290;28;20455;-65
2021/09/23 09:36:35;;;;;;;3.10;2.80;;;30.10;67.40;;;;;;4992383;28;20418;-65
2021/09/23 09:39:03;;;;;;;3.00;2.80;;;30.50;63.90;;;;;;4991795;28;20458;-65
2021/09/23 09:41:34;;;;;;;3.40;3.10;;;31.00;62.10;;;;;;4992213;28;20436;-65
2021/09/23 09:44:01;;;;;;;3.87;2.80;;;30.90;59.70;;;;;;4992261;28;20422;-65
2021/09/23 09:46:31;;;;;;;3.10;2.90;;;30.20;57.10;;;;;;4992329;28;20423;-65
2021/09/23 09:48:58;;;;;;;2.80;2.60;;;28.50;58.90;;;;;;4992050;28;20765;-64
2021/09/23 09:51:38;;;;;;;2.80;2.60;;;27.70;60.30;;;;;;4991572;28;20951;-64
2021/09/23 09:54:04;;;;;;;2.80;2.60;;;26.80;61.60;;;;;;4994120;28;20904;-64
2021/09/23 09:56:30;;;;;;;2.77;2.57;;;26.00;64.10;;;;;;4995866;28;20950;-64
2021/09/23 09:59:07;;;;;;;4.00;3.27;;;26.30;64.90;;;;;;4995550;28;20419;-65
2021/09/23 10:01:32;;;;;;;4.50;3.07;;;26.90;64.60;;;;;;4995406;28;20223;-65
2021/09/23 10:03:59;;;;;;;3.87;3.30;;;27.30;64.60;;;;;;4995689;28;20454;-64
2021/09/23 10:06:26;;;;;;;3.63;2.83;;;28.20;64.00;;;;;;4995673;28;20174;-65
2021/09/23 10:08:52;;;;;;;3.17;2.93;;;28.40;61.70;;;;;;4994749;28;20430;-65
2021/09/23 10:11:17;;;;;;;3.60;3.00;;;28.50;59.90;;;;;;4995536;28;20438;-65
2021/09/23 10:13:44;;;;;;;3.70;2.60;;;29.50;60.50;;;;;;4994778;28;20451;-65
2021/09/23 10:16:09;;;;;;;2.90;2.70;;;29.20;58.60;;;;;;4995501;28;20168;-65
2021/09/23 10:18:36;;;;;;;3.03;2.73;;;29.80;59.40;;;;;;4994782;28;20871;-65
2021/09/23 10:21:02;;;;;;;3.30;3.00;;;31.50;57.20;;;;;;4995410;28;20449;-65
2021/09/23 10:23:31;;;;;;;3.37;3.03;;;31.10;56.50;;;;;;4995385;28;20502;-65
2021/09/23 10:25:59;;;;;;;3.93;3.10;;;33.50;54.60;;;;;;4995426;28;20422;-65
2021/09/23 10:28:26;;;;;;;2.70;2.50;;;33.60;52.80;;;;;;4994845;28;20441;-65
2021/09/23 10:30:52;;;;;;;3.40;3.00;;;33.80;52.00;;;;;;5005094;23;20491;-68
2021/09/23 10:33:17;;;;;;;3.10;2.90;;;33.20;51.00;;;;;;4975459;28;20423;-68
2021/09/23 10:35:44;;;;;;;12.77;3.37;;;34.40;50.70;;;;;;4975801;28;20255;-68
2021/09/23 10:38:11;;;;;;;2.87;2.50;;;34.40;48.20;;;;;;4975471;28;20171;-67
2021/09/23 10:40:38;;;;;;;3.60;2.70;;;32.90;48.30;;;;;;4975641;28;20439;-67
2021/09/23 10:43:11;;;;;;;3.23;2.87;;;33.80;47.50;;;;;;4975176;28;20796;-67
2021/09/23 10:45:41;;;;;;;3.30;3.10;;;32.70;47.80;;;;;;4975301;28;20427;-68
2021/09/23 10:48:08;;;;;;;4.13;2.70;;;31.90;48.90;;;;;;4974101;28;20434;-68
2021/09/23 10:50:36;;;;;;;2.80;2.60;;;33.00;48.10;;;;;;4975021;28;20479;-67
2021/09/23 10:53:06;;;;;;;2.43;2.33;;;34.00;46.00;;;;;;4975418;28;20936;-67
2021/09/23 10:55:35;;;;;;;2.87;2.60;;;35.30;45.00;;;;;;4975290;28;20450;-67
2021/09/23 10:58:02;;;;;;;3.00;2.70;;;34.20;44.40;;;;;;4975185;28;20428;-67
2021/09/23 11:00:32;;;;;;;3.40;2.63;;;35.20;44.20;;;;;;4975109;28;20418;-67
2021/09/23 11:03:01;;;;;;;2.87;2.67;;;35.60;42.80;;;;;;4975169;28;20431;-67
2021/09/23 11:05:29;;;;;;;3.10;2.90;;;34.70;42.90;;;;;;4974320;28;20450;-67
2021/09/23 11:07:55;;;;;;;3.63;2.40;;;35.20;44.00;;;;;;4975044;28;20944;-67
2021/09/23 11:10:23;;;;;;;2.93;2.77;;;37.10;42.60;;;;;;4975023;28;20423;-67
2021/09/23 11:12:52;;;;;;;3.90;3.60;;;37.90;40.50;;;;;;4975136;28;20839;-67
2021/09/23 11:15:19;;;;;;;3.10;2.60;;;38.70;41.70;;;;;;4975037;28;20493;-67
2021/09/23 11:17:46;;;;;;;3.10;2.73;;;40.20;42.00;;;;;;4974758;28;20452;-67
2021/09/23 11:20:20;;;;;;;3.10;2.90;;;39.30;40.20;;;;;;4974569;28;20424;-68
2021/09/23 11:22:57;;;;;;;2.80;2.60;;;38.20;39.60;;;;;;4966141;28;20498;-70
2021/09/23 11:25:26;;;;;;;2.87;2.63;;;38.00;40.40;;;;;;4974526;28;20855;-71
2021/09/23 11:27:52;;;;;;;3.40;2.70;;;36.40;40.70;;;;;;4974182;28;20929;-71
2021/09/23 11:30:21;;;;;;;5.80;3.17;;;35.60;41.60;;;;;;4974551;28;20424;-71
2021/09/23 11:32:53;;;;;;;3.10;2.90;;;35.50;41.50;;;;;;4974553;28;20924;-72
2021/09/23 11:35:23;;;;;;;3.70;3.40;;;34.70;42.50;;;;;;4974211;28;20463;-70
2021/09/23 11:37:49;;;;;;;3.30;3.00;;;35.80;41.80;;;;;;4974050;28;20432;-71
2021/09/23 11:40:23;;;;;;;3.27;3.07;;;37.00;40.70;;;;;;4974384;28;20423;-71
2021/09/23 11:42:49;;;;;;;3.03;2.73;;;38.30;40.50;;;;;;4974249;28;20458;-71
2021/09/23 11:45:17;;;;;;;3.07;2.87;;;38.20;39.50;;;;;;4974453;28;20455;-71
2021/09/23 11:47:45;;;;;;;3.70;3.50;;;38.30;40.30;;;;;;4973870;28;20267;-72
2021/09/23 11:50:22;;;;;;;2.97;2.77;;;38.80;39.20;;;;;;4974333;28;20423;-72
2021/09/23 11:52:52;;;;;;;3.00;2.80;;;36.80;39.00;;;;;;4974296;28;20427;-72
2021/09/23 11:55:18;;;;;;;3.07;2.87;;;36.30;39.80;;;;;;4974178;28;20533;-71
2021/09/23 11:57:43;;;;;;;2.60;2.50;;;38.30;39.90;;;;;;4973678;28;20443;-72
2021/09/23 12:00:09;;;;;;;3.03;2.83;;;39.30;38.80;;;;;;4973974;28;20184;-71
2021/09/23 12:02:35;;;;;;;2.90;2.80;;;38.00;37.20;;;;;;4973743;28;20192;-71
2021/09/23 12:05:01;;;;;;;4.83;2.63;;;36.20;38.40;;;;;;4973917;28;20431;-71
2021/09/23 12:07:28;;;;;;;3.40;3.20;;;36.20;38.00;;;;;;4972606;28;20188;-71
2021/09/23 12:10:08;;;;;;;2.90;2.60;;;35.90;39.50;;;;;;4973723;28;20497;-71
2021/09/23 12:12:33;;;;;;;3.20;3.00;;;35.90;39.20;;;;;;4973720;28;20450;-72
2021/09/23 12:14:59;;;;;;;2.90;2.70;;;35.70;39.30;;;;;;4973810;28;20471;-71
2021/09/23 12:17:26;;;;;;;3.30;3.10;;;36.10;38.70;;;;;;4972432;28;20176;-71
2021/09/23 12:20:00;;;;;;;3.53;2.80;;;37.10;38.10;;;;;;4973682;28;20203;-72
2021/09/23 12:22:36;;;;;;;2.93;2.73;;;37.70;37.60;;;;;;4956200;28;20447;-71
2021/09/23 12:25:14;;;;;;;2.90;2.70;;;36.30;38.00;;;;;;4973616;28;20847;-71
2021/09/23 12:27:40;;;;;;;2.83;2.73;;;37.50;38.30;;;;;;4973325;28;20423;-71
2021/09/23 12:30:05;;;;;;;3.07;2.87;;;38.40;37.80;;;;;;4973672;28;20486;-71
2021/09/23 12:32:34;;;;;;;3.60;3.10;;;38.40;37.10;;;;;;4973059;28;20694;-71
2021/09/23 12:35:18;;;;;;;4.00;2.90;;;38.50;37.30;;;;;;4968655;28;20649;-71
2021/09/23 12:37:45;;;;;;;2.70;2.60;;;38.40;37.60;;;;;;4938837;28;20773;-71
2021/09/23 12:40:13;;;;;;;2.80;2.70;;;39.20;37.80;;;;;;4973512;28;20493;-71
2021/09/23 12:42:39;;;;;;;2.80;2.60;;;39.70;37.00;;;;;;4973337;28;20845;-71